Time,TemperatureF,DewpointF,PressureIn,WindDirection,WindDirectionDegrees,WindSpeedMPH,WindSpeedGustMPH,Humidity,HourlyPrecipIn,Conditions,Clouds,dailyrainin,SoftwareType,DateUTC
2013-06-11 00:11:00,58.2,56.0,29.83,NNE,31,0.0,-999.0,93,-99.99,,,0.00,weatherlink.com 1.10,2013-06-11 04:11:00,
2013-06-11 00:26:00,59.1,57.0,29.84,NNE,30,0.0,-999.0,93,-99.99,,,0.00,weatherlink.com 1.10,2013-06-11 04:26:00,
2013-06-11 00:41:00,59.6,57.0,29.83,SSE,165,0.0,-999.0,92,-99.99,,,0.00,weatherlink.com 1.10,2013-06-11 04:41:00,
2013-06-11 00:56:00,60.2,58.0,29.83,SSE,166,0.0,-999.0,91,-99.99,,,0.00,weatherlink.com 1.10,2013-06-11 04:56:00,
2013-06-11 01:11:00,60.7,58.0,29.82,West,271,0.0,-999.0,90,-99.99,,,0.00,weatherlink.com 1.10,2013-06-11 05:11:00,
2013-06-11 01:26:00,61.0,58.0,29.82,West,271,1.0,-999.0,89,-99.99,,,0.00,weatherlink.com 1.10,2013-06-11 05:26:00,
2013-06-11 01:41:00,61.0,58.0,29.82,NE,41,0.0,-999.0,88,-99.99,,,0.00,weatherlink.com 1.10,2013-06-11 05:41:00,
2013-06-11 01:56:00,60.9,57.0,29.81,SSE,152,0.0,-999.0,88,-99.99,,,0.00,weatherlink.com 1.10,2013-06-11 05:56:00,
2013-06-11 02:11:00,60.7,57.0,29.82,ENE,76,0.0,-999.0,88,-99.99,,,0.00,weatherlink.com 1.10,2013-06-11 06:11:00,
2013-06-11 02:26:00,60.6,57.0,29.83,ENE,76,0.0,-999.0,89,-99.99,,,0.00,weatherlink.com 1.10,2013-06-11 06:26:00,
2013-06-11 02:41:00,60.4,57.0,29.83,ENE,76,0.0,-999.0,89,-99.99,,,0.00,weatherlink.com 1.10,2013-06-11 06:41:00,
2013-06-11 02:56:00,60.1,57.0,29.83,ENE,76,0.0,-999.0,89,-99.99,,,0.00,weatherlink.com 1.10,2013-06-11 06:56:00,
2013-06-11 03:11:00,59.7,57.0,29.83,ENE,76,0.0,-999.0,90,-99.99,,,0.00,weatherlink.com 1.10,2013-06-11 07:11:00,
2013-06-11 03:26:00,59.4,57.0,29.83,ENE,76,0.0,-999.0,90,-99.99,,,0.00,weatherlink.com 1.10,2013-06-11 07:26:00,
2013-06-11 03:41:00,59.3,57.0,29.82,ENE,76,0.0,-999.0,91,-99.99,,,0.00,weatherlink.com 1.10,2013-06-11 07:41:00,
2013-06-11 03:56:00,59.1,57.0,29.82,ENE,76,0.0,-999.0,91,-99.99,,,0.00,weatherlink.com 1.10,2013-06-11 07:56:00,
2013-06-11 04:11:00,59.2,57.0,29.82,ENE,76,0.0,-999.0,91,-99.99,,,0.00,weatherlink.com 1.10,2013-06-11 08:11:00,
2013-06-11 04:26:00,59.1,57.0,29.82,ENE,76,0.0,-999.0,92,-99.99,,,0.00,weatherlink.com 1.10,2013-06-11 08:26:00,
2013-06-11 04:41:00,59.3,57.0,29.82,ENE,76,0.0,-999.0,91,-99.99,,,0.00,weatherlink.com 1.10,2013-06-11 08:41:00,
2013-06-11 04:56:00,59.0,56.0,29.82,ENE,76,0.0,-999.0,91,-99.99,,,0.00,weatherlink.com 1.10,2013-06-11 08:56:00,
2013-06-11 05:11:00,58.7,56.0,29.82,ENE,76,0.0,-999.0,91,-99.99,,,0.00,weatherlink.com 1.10,2013-06-11 09:11:00,
2013-06-11 05:26:00,58.3,56.0,29.81,ENE,76,0.0,-999.0,92,-99.99,,,0.00,weatherlink.com 1.10,2013-06-11 09:26:00,
2013-06-11 05:41:00,58.9,57.0,29.82,ENE,65,1.0,-999.0,93,-99.99,,,0.00,weatherlink.com 1.10,2013-06-11 09:41:00,
2013-06-11 05:56:00,59.3,57.0,29.83,ENE,65,0.0,-999.0,92,-99.99,,,0.00,weatherlink.com 1.10,2013-06-11 09:56:00,
2013-06-11 06:11:00,59.3,57.0,29.83,ENE,66,0.0,-999.0,92,-99.99,,,0.00,weatherlink.com 1.10,2013-06-11 10:11:00,
2013-06-11 06:26:00,59.3,57.0,29.84,ENE,66,0.0,-999.0,92,-99.99,,,0.00,weatherlink.com 1.10,2013-06-11 10:26:00,
2013-06-11 06:41:00,59.2,57.0,29.86,ENE,66,0.0,-999.0,92,-99.99,,,0.00,weatherlink.com 1.10,2013-06-11 10:41:00,
2013-06-11 06:56:00,59.1,57.0,29.85,ENE,65,0.0,-999.0,93,-99.99,,,0.00,weatherlink.com 1.10,2013-06-11 10:56:00,
2013-06-11 07:11:00,59.3,57.0,29.86,ENE,75,1.0,-999.0,93,-99.99,,,0.00,weatherlink.com 1.10,2013-06-11 11:11:00,
2013-06-11 07:26:00,59.7,58.0,29.85,ENE,75,0.0,-999.0,93,-99.99,,,0.00,weatherlink.com 1.10,2013-06-11 11:26:00,
2013-06-11 07:41:00,60.0,58.0,29.86,ENE,75,0.0,-999.0,92,-99.99,,,0.00,weatherlink.com 1.10,2013-06-11 11:41:00,
2013-06-11 07:56:00,59.9,57.0,29.86,NE,51,0.0,-999.0,90,-99.99,,,0.00,weatherlink.com 1.10,2013-06-11 11:56:00,
2013-06-11 08:11:00,58.7,56.0,29.87,NE,51,1.0,-999.0,91,-99.99,,,0.00,weatherlink.com 1.10,2013-06-11 12:11:00,
2013-06-11 08:26:00,58.5,56.0,29.88,NE,51,1.0,-999.0,91,-99.99,,,0.00,weatherlink.com 1.10,2013-06-11 12:26:00,
2013-06-11 08:41:00,59.2,56.0,29.86,NE,51,0.0,-999.0,90,-99.99,,,0.00,weatherlink.com 1.10,2013-06-11 12:41:00,
2013-06-11 08:56:00,60.0,57.0,29.85,NE,51,0.0,-999.0,90,-99.99,,,0.00,weatherlink.com 1.10,2013-06-11 12:56:00,
2013-06-11 09:11:00,61.9,58.0,29.86,NE,51,0.0,-999.0,87,-99.99,,,0.00,weatherlink.com 1.10,2013-06-11 13:11:00,
2013-06-11 09:26:00,63.5,59.0,29.85,NE,51,0.0,-999.0,86,-99.99,,,0.00,weatherlink.com 1.10,2013-06-11 13:26:00,
2013-06-11 09:41:00,63.9,59.0,29.84,NNE,26,0.0,-999.0,85,-99.99,,,0.00,weatherlink.com 1.10,2013-06-11 13:41:00,
2013-06-11 09:56:00,64.9,60.0,29.84,NNE,26,3.0,-999.0,83,-99.99,,,0.00,weatherlink.com 1.10,2013-06-11 13:56:00,
2013-06-11 10:11:00,65.8,60.0,29.83,NW,308,0.0,-999.0,81,-99.99,,,0.00,weatherlink.com 1.10,2013-06-11 14:11:00,
2013-06-11 10:26:00,66.7,61.0,29.83,North,360,0.0,-999.0,82,-99.99,,,0.00,weatherlink.com 1.10,2013-06-11 14:26:00,
2013-06-11 10:41:00,68.3,62.0,29.82,ESE,117,1.0,-999.0,81,-99.99,,,0.00,weatherlink.com 1.10,2013-06-11 14:41:00,
2013-06-11 10:56:00,70.6,63.0,29.81,NE,41,0.0,-999.0,77,-99.99,,,0.00,weatherlink.com 1.10,2013-06-11 14:56:00,
2013-06-11 11:11:00,72.0,64.0,29.81,NE,42,2.0,-999.0,76,-99.99,,,0.00,weatherlink.com 1.10,2013-06-11 15:11:00,
2013-06-11 11:26:00,69.9,63.0,29.81,NE,44,2.0,-999.0,79,-99.99,,,0.00,weatherlink.com 1.10,2013-06-11 15:26:00,
2013-06-11 11:41:00,69.7,62.0,29.82,NE,40,2.0,-999.0,77,-99.99,,,0.00,weatherlink.com 1.10,2013-06-11 15:41:00,
2013-06-11 11:56:00,69.1,61.0,29.82,NE,37,1.0,-999.0,76,-99.99,,,0.00,weatherlink.com 1.10,2013-06-11 15:56:00,
2013-06-11 12:11:00,68.0,61.0,29.82,NE,46,2.0,-999.0,79,-99.99,,,0.00,weatherlink.com 1.10,2013-06-11 16:11:00,
2013-06-11 12:26:00,68.4,61.0,29.83,NE,48,0.0,-999.0,77,-99.99,,,0.00,weatherlink.com 1.10,2013-06-11 16:26:00,
2013-06-11 12:41:00,67.6,60.0,29.83,NE,54,2.0,-999.0,76,-99.99,,,0.00,weatherlink.com 1.10,2013-06-11 16:41:00,
2013-06-11 12:56:00,66.9,59.0,29.83,NE,42,0.0,-999.0,77,-99.99,,,0.00,weatherlink.com 1.10,2013-06-11 16:56:00,
2013-06-11 13:11:00,66.5,60.0,29.84,NE,40,0.0,-999.0,79,-99.99,,,0.00,weatherlink.com 1.10,2013-06-11 17:11:00,
2013-06-11 13:26:00,66.1,59.0,29.84,ENE,75,1.0,-999.0,79,-99.99,,,0.00,weatherlink.com 1.10,2013-06-11 17:26:00,
2013-06-11 13:41:00,66.3,59.0,29.84,NE,49,0.0,-999.0,78,-99.99,,,0.00,weatherlink.com 1.10,2013-06-11 17:41:00,
2013-06-11 13:56:00,66.4,59.0,29.84,NE,42,2.0,-999.0,77,-99.99,,,0.00,weatherlink.com 1.10,2013-06-11 17:56:00,
2013-06-11 14:11:00,66.2,59.0,29.84,NE,55,2.0,-999.0,77,-99.99,,,0.00,weatherlink.com 1.10,2013-06-11 18:11:00,
2013-06-11 14:26:00,66.0,59.0,29.84,NE,42,4.0,-999.0,78,-99.99,,,0.00,weatherlink.com 1.10,2013-06-11 18:26:00,
2013-06-11 14:41:00,66.4,60.0,29.84,NE,34,1.0,-999.0,79,-99.99,,,0.00,weatherlink.com 1.10,2013-06-11 18:41:00,
2013-06-11 14:56:00,68.4,61.0,29.83,ENE,59,1.0,-999.0,76,-99.99,,,0.00,weatherlink.com 1.10,2013-06-11 18:56:00,
2013-06-11 15:11:00,68.2,59.0,29.83,ENE,57,1.0,-999.0,73,-99.99,,,0.00,weatherlink.com 1.10,2013-06-11 19:11:00,
2013-06-11 15:26:00,66.5,59.0,29.84,NE,42,1.0,-999.0,77,-99.99,,,0.00,weatherlink.com 1.10,2013-06-11 19:26:00,
2013-06-11 15:41:00,65.9,59.0,29.84,NNE,33,1.0,-999.0,77,-99.99,,,0.00,weatherlink.com 1.10,2013-06-11 19:41:00,
2013-06-11 15:56:00,65.4,58.0,29.83,NE,42,0.0,-999.0,77,-99.99,,,0.00,weatherlink.com 1.10,2013-06-11 19:56:00,
2013-06-11 16:11:00,66.2,59.0,29.83,NE,56,1.0,-999.0,77,-99.99,,,0.00,weatherlink.com 1.10,2013-06-11 20:11:00,
2013-06-11 16:26:00,66.5,59.0,29.83,NE,55,2.0,-999.0,77,-99.99,,,0.00,weatherlink.com 1.10,2013-06-11 20:26:00,
2013-06-11 16:41:00,65.8,58.0,29.84,NE,41,2.0,-999.0,76,-99.99,,,0.00,weatherlink.com 1.10,2013-06-11 20:41:00,
2013-06-11 16:56:00,65.4,58.0,29.84,NE,40,2.0,-999.0,77,-99.99,,,0.00,weatherlink.com 1.10,2013-06-11 20:56:00,
2013-06-11 17:11:00,64.5,58.0,29.84,NE,42,1.0,-999.0,79,-99.99,,,0.00,weatherlink.com 1.10,2013-06-11 21:11:00,
2013-06-11 17:26:00,64.8,57.0,29.84,NE,38,1.0,-999.0,76,-99.99,,,0.00,weatherlink.com 1.10,2013-06-11 21:26:00,
2013-06-11 17:41:00,63.6,57.0,29.84,NNE,28,1.0,-999.0,78,-99.99,,,0.00,weatherlink.com 1.10,2013-06-11 21:41:00,
2013-06-11 17:56:00,62.5,57.0,29.84,NNE,28,0.0,-999.0,81,-99.99,,,0.00,weatherlink.com 1.10,2013-06-11 21:56:00,
2013-06-11 18:11:00,62.0,56.0,29.85,NNE,28,2.0,-999.0,81,-99.99,,,0.00,weatherlink.com 1.10,2013-06-11 22:11:00,
2013-06-11 18:26:00,61.3,56.0,29.85,NE,36,1.0,-999.0,82,-99.99,,,0.00,weatherlink.com 1.10,2013-06-11 22:26:00,
2013-06-11 18:56:00,61.4,56.0,29.85,NE,40,0.0,-999.0,82,-99.99,,,0.00,weatherlink.com 1.10,2013-06-11 22:56:00,
2013-06-11 19:11:00,61.1,56.0,29.85,NE,40,1.0,-999.0,82,-99.99,,,0.00,weatherlink.com 1.10,2013-06-11 23:11:00,
2013-06-11 19:26:00,60.2,55.0,29.85,NE,40,1.0,-999.0,82,-99.99,,,0.00,weatherlink.com 1.10,2013-06-11 23:26:00,
2013-06-11 19:41:00,58.7,54.0,29.86,NE,40,1.0,-999.0,83,-99.99,,,0.00,weatherlink.com 1.10,2013-06-11 23:41:00,
2013-06-11 19:56:00,57.0,52.0,29.87,ENE,76,0.0,-999.0,83,-99.99,,,0.00,weatherlink.com 1.10,2013-06-11 23:56:00,
2013-06-11 20:11:00,55.3,51.0,29.87,East,82,0.0,-999.0,84,-99.99,,,0.00,weatherlink.com 1.10,2013-06-12 00:11:00,
2013-06-11 20:27:00,53.9,50.0,29.87,East,82,0.0,-999.0,87,-99.99,,,0.00,weatherlink.com 1.10,2013-06-12 00:27:00,
2013-06-11 20:41:00,53.5,50.0,29.87,NE,56,0.0,-999.0,88,-99.99,,,0.00,weatherlink.com 1.10,2013-06-12 00:41:00,
2013-06-11 20:57:00,52.8,49.0,29.87,East,89,0.0,-999.0,88,-99.99,,,0.00,weatherlink.com 1.10,2013-06-12 00:57:00,
2013-06-11 21:11:00,52.3,50.0,29.87,East,88,0.0,-999.0,90,-99.99,,,0.00,weatherlink.com 1.10,2013-06-12 01:11:00,
2013-06-11 21:26:00,52.0,49.0,29.87,East,89,0.0,-999.0,90,-99.99,,,0.00,weatherlink.com 1.10,2013-06-12 01:26:00,
2013-06-11 21:41:00,51.7,49.0,29.87,East,89,0.0,-999.0,90,-99.99,,,0.00,weatherlink.com 1.10,2013-06-12 01:41:00,
2013-06-11 21:56:00,51.4,49.0,29.88,East,89,0.0,-999.0,91,-99.99,,,0.00,weatherlink.com 1.10,2013-06-12 01:56:00,
2013-06-11 22:12:00,51.3,49.0,29.87,East,89,0.0,-999.0,91,-99.99,,,0.00,weatherlink.com 1.10,2013-06-12 02:12:00,
2013-06-11 22:26:00,51.5,49.0,29.88,East,89,0.0,-999.0,92,-99.99,,,0.00,weatherlink.com 1.10,2013-06-12 02:26:00,
2013-06-11 22:41:00,51.7,50.0,29.88,East,88,0.0,-999.0,93,-99.99,,,0.00,weatherlink.com 1.10,2013-06-12 02:41:00,
2013-06-11 22:56:00,51.8,50.0,29.88,East,88,0.0,-999.0,93,-99.99,,,0.00,weatherlink.com 1.10,2013-06-12 02:56:00,
2013-06-11 23:11:00,52.0,50.0,29.88,East,89,0.0,-999.0,93,-99.99,,,0.00,weatherlink.com 1.10,2013-06-12 03:11:00,
2013-06-11 23:27:00,52.2,50.0,29.89,East,89,0.0,-999.0,93,-99.99,,,0.00,weatherlink.com 1.10,2013-06-12 03:27:00,
2013-06-11 23:41:00,52.1,50.0,29.89,East,89,0.0,-999.0,93,-99.99,,,0.00,weatherlink.com 1.10,2013-06-12 03:41:00,
2013-06-11 23:57:00,51.9,50.0,29.89,East,89,0.0,-999.0,93,-99.99,,,0.00,weatherlink.com 1.10,2013-06-12 03:57:00,